Ansley, NE

7:30 AM CST on December 15, 2019 (GMT -0600)
Main Street | | Change Station
Active Advisory: Winter Weather Advisory

Elev 2307 ft 41.29 °N, 99.38 °W | Updated 10 seconds ago

Overcast
Overcast
17.9 °F
Feels Like 18 °F
N
3
Wind Variable Wind from SSE
Gusts 6.0 mph

Today
High -- | Low -- °F
--% Chance of Precip.
Yesterday
High -- | Low -- °F
Precip. -- in
Pressure 30.00 in
Visibility 10.0 miles
Clouds Overcast 600 ft
Windchill 18 °F
Dew Point 16 °F
Humidity 92%
Rainfall 0.00 in
Snow Depth Not available.
7:56 AM 5:09 PM
Waning Gibbous, 87% visible
METAR KBBW 151253Z AUTO 12006KT 10SM OVC006 M08/M10 A2989 RMK AO2 SLP157 I1000 T10781100
Pressure 30.00 in
Visibility 10.0 miles
Clouds Overcast 600 ft
Windchill 18 °F
Dew Point 16 °F
Humidity 92%
Rainfall 0.00 in
Snow Depth Not available.
7:56 AM 5:09 PM
Waning Gibbous, 87% visible
METAR KBBW 151253Z AUTO 12006KT 10SM OVC006 M08/M10 A2989 RMK AO2 SLP157 I1000 T10781100

Get Your Daily Forecast Email!

Thanks for signing up!

Be on the lookout for a verification email in your inbox.

You'll start receiving severe weather alerts in your inbox..

×

10-Day Weather Forecast

Almanac

Astronomy

Dec. 15, 2019 Rise Set
Actual Time
Civil Twilight
Nautical Twilight
Astronomical Twilight
Moon
Length of Visible Light
Length of Day
Tomorrow will be .
, % of the Moon is Illuminated

Today's Extremes

State Highs State Lows

Community

WunderPhotos

Category 6

Welcome to Category 6. This is the collective home for Weather Underground's featured writeups by Dr. Jeff Masters (right), Bob Henson (left), Chris Burt, and other regular contributors.

Nearby

Air Quality

  Air Quality AQ Index Pollutant
Not available.

Snow Depth

Station Depth Elevation

Earthquake Activity

City Distance Mag. Time & Date
Minimum magnitude displayed is 2.5.

Coastal Water Temperatures

Place Temperature

Stations

Nearby Weather Stations

Station Location Temp. Windchill Dew Point Humidity Wind Precip. Elev Updated Type
                   

Watches & Warnings

Winter Weather Advisory
Issued: 5:52 AM CST Dec. 15, 2019 – National Weather Service

... Winter Weather Advisory remains in effect until 9 am CST this
morning...

* what... snow. Additional snow accumulations of up to one inch.

* Where... portions of central, north central, southwest and west
central Nebraska.

* When... until 9 am CST this morning.

* Impacts... plan on slippery Road conditions.

Precautionary/preparedness actions...

Slow down and use caution while traveling.

Call Nebraska 511 for the latest Road information.



For more information from the National Weather Service visit
http://weather.Gov/lbf